sensor_id;sensor_type;location;lat;lon;timestamp;temperature;humidity
35692;DHT22;26978;44.830;-0.674;2023-05-17T00:01:48;10.40;99.90
35692;DHT22;26978;44.830;-0.674;2023-05-17T00:04:14;10.40;99.90
35692;DHT22;26978;44.830;-0.674;2023-05-17T00:06:41;10.40;99.90
35692;DHT22;26978;44.830;-0.674;2023-05-17T00:09:06;10.40;99.90
35692;DHT22;26978;44.830;-0.674;2023-05-17T00:11:32;10.30;99.90
35692;DHT22;26978;44.830;-0.674;2023-05-17T00:13:58;10.30;99.90
35692;DHT22;26978;44.830;-0.674;2023-05-17T00:16:23;10.20;99.90
35692;DHT22;26978;44.830;-0.674;2023-05-17T00:18:49;10.20;99.90
35692;DHT22;26978;44.830;-0.674;2023-05-17T00:21:15;10.20;99.90
35692;DHT22;26978;44.830;-0.674;2023-05-17T00:23:40;10.20;99.90
35692;DHT22;26978;44.830;-0.674;2023-05-17T00:26:06;10.10;99.90
35692;DHT22;26978;44.830;-0.674;2023-05-17T00:28:31;10.10;99.90
35692;DHT22;26978;44.830;-0.674;2023-05-17T00:30:57;10.10;99.90
35692;DHT22;26978;44.830;-0.674;2023-05-17T00:33:23;9.90;99.90
35692;DHT22;26978;44.830;-0.674;2023-05-17T00:35:48;9.90;99.90
35692;DHT22;26978;44.830;-0.674;2023-05-17T00:38:14;9.90;99.90
35692;DHT22;26978;44.830;-0.674;2023-05-17T00:40:39;10.10;99.90
35692;DHT22;26978;44.830;-0.674;2023-05-17T00:43:05;10.10;99.90
35692;DHT22;26978;44.830;-0.674;2023-05-17T00:45:31;10.10;99.90
35692;DHT22;26978;44.830;-0.674;2023-05-17T00:47:56;10.10;99.90
35692;DHT22;26978;44.830;-0.674;2023-05-17T00:50:22;10.10;99.90
35692;DHT22;26978;44.830;-0.674;2023-05-17T00:52:48;10.10;99.90
35692;DHT22;26978;44.830;-0.674;2023-05-17T00:55:13;10.00;99.90
35692;DHT22;26978;44.830;-0.674;2023-05-17T00:57:39;9.90;99.90
35692;DHT22;26978;44.830;-0.674;2023-05-17T01:00:05;9.80;99.90
35692;DHT22;26978;44.830;-0.674;2023-05-17T01:02:31;9.70;99.90
35692;DHT22;26978;44.830;-0.674;2023-05-17T01:04:57;9.50;99.90
35692;DHT22;26978;44.830;-0.674;2023-05-17T01:07:22;9.40;99.90
35692;DHT22;26978;44.830;-0.674;2023-05-17T01:09:48;9.30;99.90
35692;DHT22;26978;44.830;-0.674;2023-05-17T01:15:14;9.40;99.90
35692;DHT22;26978;44.830;-0.674;2023-05-17T01:18:19;9.40;99.90
35692;DHT22;26978;44.830;-0.674;2023-05-17T01:20:47;9.40;99.90
35692;DHT22;26978;44.830;-0.674;2023-05-17T01:26:06;9.40;99.90
35692;DHT22;26978;44.830;-0.674;2023-05-17T01:28:33;9.40;99.90
35692;DHT22;26978;44.830;-0.674;2023-05-17T01:31:02;9.30;99.90
35692;DHT22;26978;44.830;-0.674;2023-05-17T01:33:28;9.30;99.90
35692;DHT22;26978;44.830;-0.674;2023-05-17T01:35:54;9.30;99.90
35692;DHT22;26978;44.830;-0.674;2023-05-17T01:38:20;9.30;99.90
35692;DHT22;26978;44.830;-0.674;2023-05-17T01:41:00;9.30;99.90
35692;DHT22;26978;44.830;-0.674;2023-05-17T01:46:42;9.10;99.90
35692;DHT22;26978;44.830;-0.674;2023-05-17T01:49:20;9.00;99.90
35692;DHT22;26978;44.830;-0.674;2023-05-17T01:52:18;8.80;99.90
35692;DHT22;26978;44.830;-0.674;2023-05-17T01:55:18;8.80;99.90
35692;DHT22;26978;44.830;-0.674;2023-05-17T01:57:52;9.00;99.90
35692;DHT22;26978;44.830;-0.674;2023-05-17T02:00:18;9.00;99.90
35692;DHT22;26978;44.830;-0.674;2023-05-17T02:02:46;9.10;99.90
35692;DHT22;26978;44.830;-0.674;2023-05-17T02:05:12;9.00;99.90
35692;DHT22;26978;44.830;-0.674;2023-05-17T02:07:37;9.00;99.90
35692;DHT22;26978;44.830;-0.674;2023-05-17T02:10:04;9.00;99.90
35692;DHT22;26978;44.830;-0.674;2023-05-17T02:12:30;9.00;99.90
35692;DHT22;26978;44.830;-0.674;2023-05-17T02:14:55;9.00;99.90
35692;DHT22;26978;44.830;-0.674;2023-05-17T02:17:21;8.90;99.90
35692;DHT22;26978;44.830;-0.674;2023-05-17T02:19:47;8.90;99.90
35692;DHT22;26978;44.830;-0.674;2023-05-17T02:22:12;9.00;99.90
35692;DHT22;26978;44.830;-0.674;2023-05-17T02:24:38;8.90;99.90
35692;DHT22;26978;44.830;-0.674;2023-05-17T02:27:04;8.90;99.90
35692;DHT22;26978;44.830;-0.674;2023-05-17T02:29:29;9.00;99.90
35692;DHT22;26978;44.830;-0.674;2023-05-17T02:31:56;9.00;99.90
35692;DHT22;26978;44.830;-0.674;2023-05-17T02:34:21;9.00;99.90
35692;DHT22;26978;44.830;-0.674;2023-05-17T02:36:47;8.90;99.90
35692;DHT22;26978;44.830;-0.674;2023-05-17T02:39:13;8.90;99.90
35692;DHT22;26978;44.830;-0.674;2023-05-17T02:41:38;8.90;99.90
35692;DHT22;26978;44.830;-0.674;2023-05-17T02:44:04;8.90;99.90
35692;DHT22;26978;44.830;-0.674;2023-05-17T02:46:30;8.80;99.90
35692;DHT22;26978;44.830;-0.674;2023-05-17T02:48:55;8.90;99.90
35692;DHT22;26978;44.830;-0.674;2023-05-17T02:51:21;8.80;99.90
35692;DHT22;26978;44.830;-0.674;2023-05-17T02:53:46;8.80;99.90
35692;DHT22;26978;44.830;-0.674;2023-05-17T02:56:12;8.70;99.90
35692;DHT22;26978;44.830;-0.674;2023-05-17T02:58:38;8.70;99.90
35692;DHT22;26978;44.830;-0.674;2023-05-17T03:01:04;8.70;99.90
35692;DHT22;26978;44.830;-0.674;2023-05-17T03:03:29;8.70;99.90
35692;DHT22;26978;44.830;-0.674;2023-05-17T03:06:02;8.60;99.90
35692;DHT22;26978;44.830;-0.674;2023-05-17T03:08:29;8.60;99.90
35692;DHT22;26978;44.830;-0.674;2023-05-17T03:10:55;8.60;99.90
35692;DHT22;26978;44.830;-0.674;2023-05-17T03:13:21;8.60;99.90
35692;DHT22;26978;44.830;-0.674;2023-05-17T03:15:47;8.60;99.90
35692;DHT22;26978;44.830;-0.674;2023-05-17T03:18:12;8.60;99.90
35692;DHT22;26978;44.830;-0.674;2023-05-17T03:20:38;8.60;99.90
35692;DHT22;26978;44.830;-0.674;2023-05-17T03:23:07;8.60;99.90
35692;DHT22;26978;44.830;-0.674;2023-05-17T03:25:32;8.50;99.90
35692;DHT22;26978;44.830;-0.674;2023-05-17T03:27:58;8.50;99.90
35692;DHT22;26978;44.830;-0.674;2023-05-17T03:30:23;8.40;99.90
35692;DHT22;26978;44.830;-0.674;2023-05-17T03:32:49;8.40;99.90
35692;DHT22;26978;44.830;-0.674;2023-05-17T03:35:15;8.40;99.90
35692;DHT22;26978;44.830;-0.674;2023-05-17T03:37:40;8.40;99.90
35692;DHT22;26978;44.830;-0.674;2023-05-17T03:40:06;8.30;99.90
35692;DHT22;26978;44.830;-0.674;2023-05-17T03:42:32;8.40;99.90
35692;DHT22;26978;44.830;-0.674;2023-05-17T03:44:59;8.40;99.90
35692;DHT22;26978;44.830;-0.674;2023-05-17T03:47:25;8.40;99.90
35692;DHT22;26978;44.830;-0.674;2023-05-17T03:49:51;8.40;99.90
35692;DHT22;26978;44.830;-0.674;2023-05-17T03:52:16;8.40;99.90
35692;DHT22;26978;44.830;-0.674;2023-05-17T03:54:42;8.40;99.90
35692;DHT22;26978;44.830;-0.674;2023-05-17T03:57:08;8.30;99.90
35692;DHT22;26978;44.830;-0.674;2023-05-17T03:59:33;8.30;99.90
35692;DHT22;26978;44.830;-0.674;2023-05-17T04:01:59;8.20;99.90
35692;DHT22;26978;44.830;-0.674;2023-05-17T04:04:24;8.20;99.90
35692;DHT22;26978;44.830;-0.674;2023-05-17T04:06:51;8.20;99.90
35692;DHT22;26978;44.830;-0.674;2023-05-17T04:09:16;8.20;99.90
35692;DHT22;26978;44.830;-0.674;2023-05-17T04:11:42;8.20;99.90
35692;DHT22;26978;44.830;-0.674;2023-05-17T04:14:08;8.20;99.90
35692;DHT22;26978;44.830;-0.674;2023-05-17T04:16:33;8.20;99.90
35692;DHT22;26978;44.830;-0.674;2023-05-17T04:18:59;8.10;99.90
35692;DHT22;26978;44.830;-0.674;2023-05-17T04:21:25;8.10;99.90
35692;DHT22;26978;44.830;-0.674;2023-05-17T04:23:51;8.10;99.90
35692;DHT22;26978;44.830;-0.674;2023-05-17T04:26:17;8.10;99.90
35692;DHT22;26978;44.830;-0.674;2023-05-17T04:28:43;8.10;99.90
35692;DHT22;26978;44.830;-0.674;2023-05-17T04:31:09;8.10;99.90
35692;DHT22;26978;44.830;-0.674;2023-05-17T04:33:35;8.10;99.90
35692;DHT22;26978;44.830;-0.674;2023-05-17T04:36:02;8.10;99.90
35692;DHT22;26978;44.830;-0.674;2023-05-17T04:38:28;8.10;99.90
35692;DHT22;26978;44.830;-0.674;2023-05-17T04:40:59;8.10;99.90
35692;DHT22;26978;44.830;-0.674;2023-05-17T04:43:25;8.20;99.90
35692;DHT22;26978;44.830;-0.674;2023-05-17T04:45:56;8.20;99.90
35692;DHT22;26978;44.830;-0.674;2023-05-17T04:48:22;8.20;99.90
35692;DHT22;26978;44.830;-0.674;2023-05-17T04:50:48;8.20;99.90
35692;DHT22;26978;44.830;-0.674;2023-05-17T04:53:13;8.20;99.90
35692;DHT22;26978;44.830;-0.674;2023-05-17T04:55:40;8.30;99.90
35692;DHT22;26978;44.830;-0.674;2023-05-17T04:58:06;8.30;99.90
35692;DHT22;26978;44.830;-0.674;2023-05-17T05:00:31;8.30;99.90
35692;DHT22;26978;44.830;-0.674;2023-05-17T05:02:57;8.40;99.90
35692;DHT22;26978;44.830;-0.674;2023-05-17T05:05:23;8.40;99.90
35692;DHT22;26978;44.830;-0.674;2023-05-17T05:07:50;8.40;99.90
35692;DHT22;26978;44.830;-0.674;2023-05-17T05:10:17;8.50;99.90
35692;DHT22;26978;44.830;-0.674;2023-05-17T05:12:42;8.50;99.90
35692;DHT22;26978;44.830;-0.674;2023-05-17T05:15:09;8.60;99.90
35692;DHT22;26978;44.830;-0.674;2023-05-17T05:17:35;8.60;99.90
35692;DHT22;26978;44.830;-0.674;2023-05-17T05:20:01;8.60;99.90
35692;DHT22;26978;44.830;-0.674;2023-05-17T05:22:27;8.60;99.90
35692;DHT22;26978;44.830;-0.674;2023-05-17T05:24:52;8.70;99.90
35692;DHT22;26978;44.830;-0.674;2023-05-17T05:27:18;8.70;99.90
35692;DHT22;26978;44.830;-0.674;2023-05-17T05:29:45;8.70;99.90
35692;DHT22;26978;44.830;-0.674;2023-05-17T05:32:10;8.70;99.90
35692;DHT22;26978;44.830;-0.674;2023-05-17T05:34:37;8.80;99.90
35692;DHT22;26978;44.830;-0.674;2023-05-17T05:37:03;8.90;99.90
35692;DHT22;26978;44.830;-0.674;2023-05-17T05:39:29;9.00;99.90
35692;DHT22;26978;44.830;-0.674;2023-05-17T05:41:55;9.00;99.90
35692;DHT22;26978;44.830;-0.674;2023-05-17T05:44:20;9.10;99.90
35692;DHT22;26978;44.830;-0.674;2023-05-17T05:46:46;9.20;99.90
35692;DHT22;26978;44.830;-0.674;2023-05-17T05:49:12;9.30;99.90
35692;DHT22;26978;44.830;-0.674;2023-05-17T05:51:37;9.30;99.90
35692;DHT22;26978;44.830;-0.674;2023-05-17T05:54:03;9.40;99.90
35692;DHT22;26978;44.830;-0.674;2023-05-17T05:56:28;9.40;99.90
35692;DHT22;26978;44.830;-0.674;2023-05-17T05:58:55;9.50;99.90
35692;DHT22;26978;44.830;-0.674;2023-05-17T06:01:21;9.60;99.90
35692;DHT22;26978;44.830;-0.674;2023-05-17T06:03:47;9.70;99.90
35692;DHT22;26978;44.830;-0.674;2023-05-17T06:06:12;9.80;99.90
35692;DHT22;26978;44.830;-0.674;2023-05-17T06:08:40;9.90;99.90
35692;DHT22;26978;44.830;-0.674;2023-05-17T06:11:07;10.00;99.90
35692;DHT22;26978;44.830;-0.674;2023-05-17T06:13:33;10.10;99.90
35692;DHT22;26978;44.830;-0.674;2023-05-17T06:15:59;10.20;99.90
35692;DHT22;26978;44.830;-0.674;2023-05-17T06:18:24;10.30;99.90
35692;DHT22;26978;44.830;-0.674;2023-05-17T06:20:50;10.40;99.90
35692;DHT22;26978;44.830;-0.674;2023-05-17T06:23:16;10.50;99.90
35692;DHT22;26978;44.830;-0.674;2023-05-17T06:25:41;10.60;99.90
35692;DHT22;26978;44.830;-0.674;2023-05-17T06:28:07;10.70;99.90
35692;DHT22;26978;44.830;-0.674;2023-05-17T06:30:34;10.70;99.90
35692;DHT22;26978;44.830;-0.674;2023-05-17T06:33:00;10.80;99.90
35692;DHT22;26978;44.830;-0.674;2023-05-17T06:35:26;10.90;99.90
35692;DHT22;26978;44.830;-0.674;2023-05-17T06:37:51;11.00;99.90
35692;DHT22;26978;44.830;-0.674;2023-05-17T06:40:17;11.20;99.90
35692;DHT22;26978;44.830;-0.674;2023-05-17T06:42:42;11.20;99.90
35692;DHT22;26978;44.830;-0.674;2023-05-17T06:45:09;11.30;99.90
35692;DHT22;26978;44.830;-0.674;2023-05-17T06:47:34;11.40;99.90
35692;DHT22;26978;44.830;-0.674;2023-05-17T06:50:00;11.50;99.90
35692;DHT22;26978;44.830;-0.674;2023-05-17T06:52:26;11.50;99.90
35692;DHT22;26978;44.830;-0.674;2023-05-17T06:54:51;11.60;99.90
35692;DHT22;26978;44.830;-0.674;2023-05-17T06:57:17;11.60;99.90
35692;DHT22;26978;44.830;-0.674;2023-05-17T06:59:43;11.80;99.90
35692;DHT22;26978;44.830;-0.674;2023-05-17T07:02:08;11.90;99.90
35692;DHT22;26978;44.830;-0.674;2023-05-17T07:04:34;12.00;99.90
35692;DHT22;26978;44.830;-0.674;2023-05-17T07:07:00;12.00;99.90
35692;DHT22;26978;44.830;-0.674;2023-05-17T07:09:25;12.00;99.90
35692;DHT22;26978;44.830;-0.674;2023-05-17T07:11:51;12.10;99.90
35692;DHT22;26978;44.830;-0.674;2023-05-17T07:14:17;12.20;99.90
35692;DHT22;26978;44.830;-0.674;2023-05-17T07:16:42;12.30;99.90
35692;DHT22;26978;44.830;-0.674;2023-05-17T07:19:08;12.30;99.90
35692;DHT22;26978;44.830;-0.674;2023-05-17T07:21:33;12.40;99.90
35692;DHT22;26978;44.830;-0.674;2023-05-17T07:24:00;12.50;99.90
35692;DHT22;26978;44.830;-0.674;2023-05-17T07:26:26;12.50;99.90
35692;DHT22;26978;44.830;-0.674;2023-05-17T07:28:51;12.70;99.90
35692;DHT22;26978;44.830;-0.674;2023-05-17T07:31:17;12.70;99.90
35692;DHT22;26978;44.830;-0.674;2023-05-17T07:33:43;12.60;99.90
35692;DHT22;26978;44.830;-0.674;2023-05-17T07:36:09;12.70;99.90
35692;DHT22;26978;44.830;-0.674;2023-05-17T07:38:34;12.80;99.90
35692;DHT22;26978;44.830;-0.674;2023-05-17T07:41:01;12.90;99.90
35692;DHT22;26978;44.830;-0.674;2023-05-17T07:43:27;13.00;99.90
35692;DHT22;26978;44.830;-0.674;2023-05-17T07:45:53;13.00;99.90
35692;DHT22;26978;44.830;-0.674;2023-05-17T07:48:18;13.20;99.90
35692;DHT22;26978;44.830;-0.674;2023-05-17T07:50:44;13.20;99.90
35692;DHT22;26978;44.830;-0.674;2023-05-17T07:53:11;13.20;99.90
35692;DHT22;26978;44.830;-0.674;2023-05-17T07:55:37;13.30;99.90
35692;DHT22;26978;44.830;-0.674;2023-05-17T07:58:02;13.60;99.90
35692;DHT22;26978;44.830;-0.674;2023-05-17T08:00:28;13.60;99.90
35692;DHT22;26978;44.830;-0.674;2023-05-17T08:02:54;13.60;99.90
35692;DHT22;26978;44.830;-0.674;2023-05-17T08:05:20;13.60;99.90
35692;DHT22;26978;44.830;-0.674;2023-05-17T08:07:46;13.70;99.90
35692;DHT22;26978;44.830;-0.674;2023-05-17T08:10:11;13.80;99.90
35692;DHT22;26978;44.830;-0.674;2023-05-17T08:12:37;14.10;99.90
35692;DHT22;26978;44.830;-0.674;2023-05-17T08:15:03;14.20;99.90
35692;DHT22;26978;44.830;-0.674;2023-05-17T08:17:29;14.20;99.90
35692;DHT22;26978;44.830;-0.674;2023-05-17T08:19:55;14.20;99.90
35692;DHT22;26978;44.830;-0.674;2023-05-17T08:22:21;14.30;99.90
35692;DHT22;26978;44.830;-0.674;2023-05-17T08:24:46;14.30;99.90
35692;DHT22;26978;44.830;-0.674;2023-05-17T08:27:12;14.30;99.90
35692;DHT22;26978;44.830;-0.674;2023-05-17T08:29:37;14.20;99.90
35692;DHT22;26978;44.830;-0.674;2023-05-17T08:32:03;14.30;99.90
35692;DHT22;26978;44.830;-0.674;2023-05-17T08:34:29;14.40;99.90
35692;DHT22;26978;44.830;-0.674;2023-05-17T08:36:54;14.50;99.90
35692;DHT22;26978;44.830;-0.674;2023-05-17T08:39:20;14.60;99.90
35692;DHT22;26978;44.830;-0.674;2023-05-17T08:41:49;14.50;99.90
35692;DHT22;26978;44.830;-0.674;2023-05-17T08:44:15;14.80;99.90
35692;DHT22;26978;44.830;-0.674;2023-05-17T08:46:42;14.60;99.90
35692;DHT22;26978;44.830;-0.674;2023-05-17T08:49:19;14.60;99.90
35692;DHT22;26978;44.830;-0.674;2023-05-17T08:51:48;14.70;99.90
35692;DHT22;26978;44.830;-0.674;2023-05-17T08:54:14;14.80;99.90
35692;DHT22;26978;44.830;-0.674;2023-05-17T08:56:41;15.00;99.90
35692;DHT22;26978;44.830;-0.674;2023-05-17T08:59:08;15.00;97.80
35692;DHT22;26978;44.830;-0.674;2023-05-17T09:01:38;14.90;96.90
35692;DHT22;26978;44.830;-0.674;2023-05-17T09:04:07;15.00;96.90
35692;DHT22;26978;44.830;-0.674;2023-05-17T09:06:34;15.00;97.30
35692;DHT22;26978;44.830;-0.674;2023-05-17T09:09:00;15.00;97.10
35692;DHT22;26978;44.830;-0.674;2023-05-17T09:11:28;15.20;98.20
35692;DHT22;26978;44.830;-0.674;2023-05-17T09:13:57;15.20;95.70
35692;DHT22;26978;44.830;-0.674;2023-05-17T09:16:28;15.40;97.10
35692;DHT22;26978;44.830;-0.674;2023-05-17T09:18:56;15.40;95.50
35692;DHT22;26978;44.830;-0.674;2023-05-17T09:21:23;15.30;95.70
35692;DHT22;26978;44.830;-0.674;2023-05-17T09:23:50;15.30;96.20
35692;DHT22;26978;44.830;-0.674;2023-05-17T09:26:16;15.50;95.90
35692;DHT22;26978;44.830;-0.674;2023-05-17T09:28:45;15.60;95.10
35692;DHT22;26978;44.830;-0.674;2023-05-17T09:31:15;15.80;94.40
35692;DHT22;26978;44.830;-0.674;2023-05-17T09:33:47;15.80;94.40
35692;DHT22;26978;44.830;-0.674;2023-05-17T09:36:20;15.80;93.00
35692;DHT22;26978;44.830;-0.674;2023-05-17T09:38:59;15.70;90.90
35692;DHT22;26978;44.830;-0.674;2023-05-17T09:41:46;15.80;91.60
35692;DHT22;26978;44.830;-0.674;2023-05-17T09:44:13;15.80;92.50
35692;DHT22;26978;44.830;-0.674;2023-05-17T09:46:44;15.90;95.10
35692;DHT22;26978;44.830;-0.674;2023-05-17T09:49:11;15.90;91.60
35692;DHT22;26978;44.830;-0.674;2023-05-17T09:51:39;16.00;93.40
35692;DHT22;26978;44.830;-0.674;2023-05-17T09:54:09;16.00;91.80
35692;DHT22;26978;44.830;-0.674;2023-05-17T09:56:35;16.10;92.90
35692;DHT22;26978;44.830;-0.674;2023-05-17T09:59:02;16.00;91.20
35692;DHT22;26978;44.830;-0.674;2023-05-17T10:01:29;16.00;90.80
35692;DHT22;26978;44.830;-0.674;2023-05-17T10:03:59;16.10;91.80
35692;DHT22;26978;44.830;-0.674;2023-05-17T10:06:27;16.30;94.10
35692;DHT22;26978;44.830;-0.674;2023-05-17T10:08:56;16.30;92.20
35692;DHT22;26978;44.830;-0.674;2023-05-17T10:11:26;16.30;91.60
35692;DHT22;26978;44.830;-0.674;2023-05-17T10:14:22;16.50;90.40
35692;DHT22;26978;44.830;-0.674;2023-05-17T10:16:49;16.40;90.10
35692;DHT22;26978;44.830;-0.674;2023-05-17T10:19:15;16.50;90.50
35692;DHT22;26978;44.830;-0.674;2023-05-17T10:21:46;16.40;90.30
35692;DHT22;26978;44.830;-0.674;2023-05-17T10:24:12;16.60;86.70
35692;DHT22;26978;44.830;-0.674;2023-05-17T10:26:38;16.60;87.20
35692;DHT22;26978;44.830;-0.674;2023-05-17T10:29:04;16.60;89.70
35692;DHT22;26978;44.830;-0.674;2023-05-17T10:31:32;16.60;86.50
35692;DHT22;26978;44.830;-0.674;2023-05-17T10:34:00;16.70;86.70
35692;DHT22;26978;44.830;-0.674;2023-05-17T10:36:26;16.90;92.40
35692;DHT22;26978;44.830;-0.674;2023-05-17T10:38:52;16.90;88.50
35692;DHT22;26978;44.830;-0.674;2023-05-17T10:41:20;16.90;89.90
35692;DHT22;26978;44.830;-0.674;2023-05-17T10:43:47;16.90;88.70
35692;DHT22;26978;44.830;-0.674;2023-05-17T10:46:18;17.10;90.50
35692;DHT22;26978;44.830;-0.674;2023-05-17T10:48:50;17.00;90.90
35692;DHT22;26978;44.830;-0.674;2023-05-17T10:51:25;17.10;90.00
35692;DHT22;26978;44.830;-0.674;2023-05-17T10:56:54;17.00;89.70
35692;DHT22;26978;44.830;-0.674;2023-05-17T10:59:49;17.20;86.70
35692;DHT22;26978;44.830;-0.674;2023-05-17T11:02:22;17.60;85.90
35692;DHT22;26978;44.830;-0.674;2023-05-17T11:04:49;17.70;86.40
35692;DHT22;26978;44.830;-0.674;2023-05-17T11:07:29;18.00;82.40
35692;DHT22;26978;44.830;-0.674;2023-05-17T11:12:40;17.80;75.80
35692;DHT22;26978;44.830;-0.674;2023-05-17T11:17:34;17.40;74.20
35692;DHT22;26978;44.830;-0.674;2023-05-17T11:20:00;18.10;79.50
35692;DHT22;26978;44.830;-0.674;2023-05-17T11:22:26;18.80;80.40
35692;DHT22;26978;44.830;-0.674;2023-05-17T11:24:53;19.00;72.40
35692;DHT22;26978;44.830;-0.674;2023-05-17T11:27:20;19.00;70.10
35692;DHT22;26978;44.830;-0.674;2023-05-17T11:29:54;19.30;70.60
35692;DHT22;26978;44.830;-0.674;2023-05-17T11:32:27;19.10;71.60
35692;DHT22;26978;44.830;-0.674;2023-05-17T11:34:53;18.90;70.00
35692;DHT22;26978;44.830;-0.674;2023-05-17T11:37:27;18.70;71.60
35692;DHT22;26978;44.830;-0.674;2023-05-17T11:40:04;18.80;67.40
35692;DHT22;26978;44.830;-0.674;2023-05-17T11:42:32;18.80;71.80
35692;DHT22;26978;44.830;-0.674;2023-05-17T11:44:59;18.60;70.50
35692;DHT22;26978;44.830;-0.674;2023-05-17T11:47:26;18.40;71.80
35692;DHT22;26978;44.830;-0.674;2023-05-17T11:49:53;18.30;69.70
35692;DHT22;26978;44.830;-0.674;2023-05-17T11:52:20;17.90;69.40
35692;DHT22;26978;44.830;-0.674;2023-05-17T11:54:47;17.90;68.10
35692;DHT22;26978;44.830;-0.674;2023-05-17T11:57:13;17.90;70.60
35692;DHT22;26978;44.830;-0.674;2023-05-17T11:59:42;17.70;71.50
35692;DHT22;26978;44.830;-0.674;2023-05-17T12:02:08;17.70;74.20
35692;DHT22;26978;44.830;-0.674;2023-05-17T12:04:38;17.60;76.40
35692;DHT22;26978;44.830;-0.674;2023-05-17T12:07:04;18.20;73.60
35692;DHT22;26978;44.830;-0.674;2023-05-17T12:09:32;18.40;70.00
35692;DHT22;26978;44.830;-0.674;2023-05-17T12:12:02;19.00;70.50
35692;DHT22;26978;44.830;-0.674;2023-05-17T12:14:29;19.30;66.50
35692;DHT22;26978;44.830;-0.674;2023-05-17T12:16:55;20.00;65.30
35692;DHT22;26978;44.830;-0.674;2023-05-17T12:19:23;20.30;69.80
35692;DHT22;26978;44.830;-0.674;2023-05-17T12:21:51;20.10;62.50
35692;DHT22;26978;44.830;-0.674;2023-05-17T12:24:17;19.60;62.10
35692;DHT22;26978;44.830;-0.674;2023-05-17T12:26:43;20.30;69.20
35692;DHT22;26978;44.830;-0.674;2023-05-17T12:29:10;20.00;57.50
35692;DHT22;26978;44.830;-0.674;2023-05-17T12:31:39;19.50;57.50
35692;DHT22;26978;44.830;-0.674;2023-05-17T12:34:06;19.10;60.00
35692;DHT22;26978;44.830;-0.674;2023-05-17T12:36:37;19.80;60.50
35692;DHT22;26978;44.830;-0.674;2023-05-17T12:39:03;20.40;62.80
35692;DHT22;26978;44.830;-0.674;2023-05-17T12:41:34;20.50;54.20
35692;DHT22;26978;44.830;-0.674;2023-05-17T12:44:00;20.90;55.90
35692;DHT22;26978;44.830;-0.674;2023-05-17T12:46:27;21.90;52.80
35692;DHT22;26978;44.830;-0.674;2023-05-17T12:48:53;22.30;50.50
35692;DHT22;26978;44.830;-0.674;2023-05-17T12:51:21;20.70;42.00
35692;DHT22;26978;44.830;-0.674;2023-05-17T12:53:55;20.70;47.80
35692;DHT22;26978;44.830;-0.674;2023-05-17T12:56:22;21.60;49.10
35692;DHT22;26978;44.830;-0.674;2023-05-17T13:01:34;20.10;49.20
35692;DHT22;26978;44.830;-0.674;2023-05-17T13:04:00;21.90;52.90
35692;DHT22;26978;44.830;-0.674;2023-05-17T13:06:26;22.10;44.70
35692;DHT22;26978;44.830;-0.674;2023-05-17T13:08:59;23.00;42.30
35692;DHT22;26978;44.830;-0.674;2023-05-17T13:11:25;23.40;33.10
35692;DHT22;26978;44.830;-0.674;2023-05-17T13:13:50;24.20;30.30
35692;DHT22;26978;44.830;-0.674;2023-05-17T13:16:16;23.20;19.90
35692;DHT22;26978;44.830;-0.674;2023-05-17T13:18:49;23.40;28.00
35692;DHT22;26978;44.830;-0.674;2023-05-17T13:21:18;23.70;22.60
35692;DHT22;26978;44.830;-0.674;2023-05-17T13:23:48;23.60;24.70
35692;DHT22;26978;44.830;-0.674;2023-05-17T13:26:15;22.30;27.60
35692;DHT22;26978;44.830;-0.674;2023-05-17T13:28:41;20.90;30.00
35692;DHT22;26978;44.830;-0.674;2023-05-17T13:31:07;20.60;46.90
35692;DHT22;26978;44.830;-0.674;2023-05-17T13:33:33;20.60;43.90
35692;DHT22;26978;44.830;-0.674;2023-05-17T13:35:58;20.80;49.90
35692;DHT22;26978;44.830;-0.674;2023-05-17T13:38:24;22.00;40.70
35692;DHT22;26978;44.830;-0.674;2023-05-17T13:40:50;22.90;40.70
35692;DHT22;26978;44.830;-0.674;2023-05-17T13:43:16;22.60;31.10
35692;DHT22;26978;44.830;-0.674;2023-05-17T13:45:42;22.90;26.20
35692;DHT22;26978;44.830;-0.674;2023-05-17T13:48:07;23.70;31.90
35692;DHT22;26978;44.830;-0.674;2023-05-17T13:50:33;24.40;23.40
35692;DHT22;26978;44.830;-0.674;2023-05-17T13:52:59;24.90;22.50
35692;DHT22;26978;44.830;-0.674;2023-05-17T13:55:26;25.50;20.70
35692;DHT22;26978;44.830;-0.674;2023-05-17T13:57:52;24.80;17.80
35692;DHT22;26978;44.830;-0.674;2023-05-17T14:00:18;22.50;21.20
35692;DHT22;26978;44.830;-0.674;2023-05-17T14:02:45;21.00;34.70
35692;DHT22;26978;44.830;-0.674;2023-05-17T14:05:10;20.30;49.30
35692;DHT22;26978;44.830;-0.674;2023-05-17T14:07:36;21.80;43.30
35692;DHT22;26978;44.830;-0.674;2023-05-17T14:10:07;21.70;32.80
35692;DHT22;26978;44.830;-0.674;2023-05-17T14:12:33;22.60;30.10
35692;DHT22;26978;44.830;-0.674;2023-05-17T14:14:59;22.60;27.80
35692;DHT22;26978;44.830;-0.674;2023-05-17T14:17:24;24.10;29.80
35692;DHT22;26978;44.830;-0.674;2023-05-17T14:19:50;24.00;27.30
35692;DHT22;26978;44.830;-0.674;2023-05-17T14:22:16;22.30;22.80
35692;DHT22;26978;44.830;-0.674;2023-05-17T14:24:41;21.10;34.60
35692;DHT22;26978;44.830;-0.674;2023-05-17T14:27:07;20.00;47.40
35692;DHT22;26978;44.830;-0.674;2023-05-17T14:29:32;19.40;51.30
35692;DHT22;26978;44.830;-0.674;2023-05-17T14:31:58;19.80;53.30
35692;DHT22;26978;44.830;-0.674;2023-05-17T14:34:24;19.50;50.90
35692;DHT22;26978;44.830;-0.674;2023-05-17T14:36:49;21.30;49.90
35692;DHT22;26978;44.830;-0.674;2023-05-17T14:39:15;22.80;42.90
35692;DHT22;26978;44.830;-0.674;2023-05-17T14:41:41;23.50;27.50
35692;DHT22;26978;44.830;-0.674;2023-05-17T14:44:07;24.00;23.40
35692;DHT22;26978;44.830;-0.674;2023-05-17T14:46:33;22.90;20.00
35692;DHT22;26978;44.830;-0.674;2023-05-17T14:48:59;23.10;20.70
35692;DHT22;26978;44.830;-0.674;2023-05-17T14:51:24;21.80;24.00
35692;DHT22;26978;44.830;-0.674;2023-05-17T14:53:51;20.70;37.30
35692;DHT22;26978;44.830;-0.674;2023-05-17T14:56:17;20.40;40.40
35692;DHT22;26978;44.830;-0.674;2023-05-17T14:58:43;20.80;46.20
35692;DHT22;26978;44.830;-0.674;2023-05-17T15:01:08;21.60;37.60
35692;DHT22;26978;44.830;-0.674;2023-05-17T15:03:35;21.30;41.90
35692;DHT22;26978;44.830;-0.674;2023-05-17T15:06:01;21.30;38.10
35692;DHT22;26978;44.830;-0.674;2023-05-17T15:08:27;21.30;41.40
35692;DHT22;26978;44.830;-0.674;2023-05-17T15:10:53;22.30;37.40
35692;DHT22;26978;44.830;-0.674;2023-05-17T15:13:19;21.60;36.70
35692;DHT22;26978;44.830;-0.674;2023-05-17T15:15:45;21.60;38.60
35692;DHT22;26978;44.830;-0.674;2023-05-17T15:18:11;20.30;41.60
35692;DHT22;26978;44.830;-0.674;2023-05-17T15:20:40;19.60;46.70
35692;DHT22;26978;44.830;-0.674;2023-05-17T15:23:06;19.50;49.50
35692;DHT22;26978;44.830;-0.674;2023-05-17T15:25:32;19.40;52.60
35692;DHT22;26978;44.830;-0.674;2023-05-17T15:27:57;20.90;50.30
35692;DHT22;26978;44.830;-0.674;2023-05-17T15:30:23;20.70;35.80
35692;DHT22;26978;44.830;-0.674;2023-05-17T15:32:52;21.10;37.30
35692;DHT22;26978;44.830;-0.674;2023-05-17T15:35:18;22.10;33.60
35692;DHT22;26978;44.830;-0.674;2023-05-17T15:37:45;23.20;28.30
35692;DHT22;26978;44.830;-0.674;2023-05-17T15:40:12;22.20;26.40